Time;durP1;ratioP1;P1;durP2;ratioP2;P2;SDS_P1;SDS_P2;PMS_P1;PMS_P2;Temp;Humidity;BMP_temperature;BMP_pressure;BME280_temperature;BME280_humidity;BME280_pressure;Samples;Min_cycle;Max_cycle;Signal;HPM_P1;HPM_P2
2022/06/07 00:02:05;;;;;;;1999.90;999.90;;;12.20;99.90;;;;;;5060421;28;20385;-82
2022/06/07 00:04:31;;;;;;;1999.90;999.90;;;12.10;99.90;;;;;;5083940;28;20043;-82
2022/06/07 00:06:56;;;;;;;1999.90;999.90;;;12.10;99.90;;;;;;5084593;28;20051;-82
2022/06/07 00:09:22;;;;;;;1999.90;999.90;;;12.10;99.90;;;;;;5072172;28;20040;-81
2022/06/07 00:11:48;;;;;;;1999.90;999.90;;;12.10;99.90;;;;;;5069505;28;20176;-86
2022/06/07 00:14:14;;;;;;;1999.90;999.90;;;12.10;99.90;;;;;;5052615;28;20453;-83
2022/06/07 00:16:39;;;;;;;1999.90;999.90;;;12.10;99.90;;;;;;5077327;28;20031;-83
2022/06/07 00:19:05;;;;;;;1999.90;999.90;;;12.20;99.90;;;;;;5053654;28;20485;-82
2022/06/07 00:21:31;;;;;;;1999.90;999.90;;;12.10;99.90;;;;;;5050943;28;20076;-82
2022/06/07 00:23:59;;;;;;;1999.90;999.90;;;12.10;99.90;;;;;;5052971;28;20052;-83
2022/06/07 00:26:25;;;;;;;1999.90;999.90;;;12.10;99.90;;;;;;5072582;28;20524;-82
2022/06/07 00:28:52;;;;;;;1999.90;999.90;;;12.10;99.90;;;;;;5073467;28;20044;-82
2022/06/07 00:31:17;;;;;;;1999.90;999.90;;;12.10;99.90;;;;;;5057450;28;20117;-83
2022/06/07 00:33:43;;;;;;;1999.90;999.90;;;12.20;99.90;;;;;;5062007;28;20077;-82
2022/06/07 00:36:09;;;;;;;1999.90;999.90;;;12.10;99.90;;;;;;5071282;28;20493;-81
2022/06/07 00:38:35;;;;;;;1999.90;999.90;;;12.10;99.90;;;;;;5083423;28;20039;-85
2022/06/07 00:41:01;;;;;;;1999.90;999.90;;;12.10;99.90;;;;;;5052353;28;20551;-81
2022/06/07 00:43:26;;;;;;;1999.90;999.90;;;12.10;99.90;;;;;;5074938;28;20047;-83
2022/06/07 00:45:52;;;;;;;1999.90;999.90;;;12.10;99.90;;;;;;5064194;28;20500;-83
2022/06/07 00:48:18;;;;;;;1999.90;999.90;;;12.10;99.90;;;;;;5066466;28;20040;-81
2022/06/07 00:50:58;;;;;;;1999.90;999.90;;;12.10;99.90;;;;;;5078654;28;20419;-82
2022/06/07 00:53:24;;;;;;;1999.90;999.90;;;12.10;99.90;;;;;;5064357;28;20078;-83
2022/06/07 00:55:50;;;;;;;1999.90;999.90;;;12.20;99.90;;;;;;5075104;28;20505;-82
2022/06/07 00:58:16;;;;;;;1999.90;999.90;;;12.20;99.90;;;;;;5042971;28;20048;-83
2022/06/07 01:00:42;;;;;;;1999.90;999.90;;;12.20;99.90;;;;;;5053184;28;20035;-81
2022/06/07 01:03:08;;;;;;;1999.90;999.90;;;12.20;99.90;;;;;;5045188;28;20040;-82
2022/06/07 01:05:33;;;;;;;1999.90;999.90;;;12.20;99.90;;;;;;5058463;28;20100;-83
2022/06/07 01:10:48;;;;;;;1999.90;999.90;;;12.20;99.90;;;;;;5067782;28;20048;-83
2022/06/07 01:13:19;;;;;;;1999.90;999.90;;;12.20;99.90;;;;;;5074829;28;20044;-81
2022/06/07 01:15:45;;;;;;;1999.90;999.90;;;12.20;99.90;;;;;;5052937;28;20115;-81
2022/06/07 01:18:12;;;;;;;1999.90;999.90;;;12.20;99.90;;;;;;5068321;28;20051;-83
2022/06/07 01:20:38;;;;;;;1999.90;999.90;;;12.20;99.90;;;;;;5050704;28;20036;-84
2022/06/07 01:23:04;;;;;;;1999.90;999.90;;;12.30;99.90;;;;;;5056241;28;20032;-83
2022/06/07 01:25:29;;;;;;;1999.90;999.90;;;12.30;99.90;;;;;;5067088;28;20045;-83
2022/06/07 01:27:55;;;;;;;1999.90;999.90;;;12.30;99.90;;;;;;5050639;28;20086;-83
2022/06/07 01:30:21;;;;;;;1999.90;999.90;;;12.30;99.90;;;;;;5058145;28;20049;-83
2022/06/07 01:32:47;;;;;;;1999.90;999.90;;;12.30;99.90;;;;;;5059353;28;20044;-83
2022/06/07 01:35:12;;;;;;;1999.90;999.90;;;12.30;99.90;;;;;;5056378;28;20471;-83
2022/06/07 01:37:38;;;;;;;1999.90;999.90;;;12.30;99.90;;;;;;5052521;28;20099;-81
2022/06/07 01:42:50;;;;;;;1999.90;999.90;;;12.30;99.90;;;;;;5063591;28;20048;-82
2022/06/07 01:45:16;;;;;;;1999.90;999.90;;;12.40;99.90;;;;;;5069212;28;20040;-81
2022/06/07 01:47:41;;;;;;;1999.90;999.90;;;12.40;99.90;;;;;;5068937;28;20105;-82
2022/06/07 01:50:08;;;;;;;1999.90;999.90;;;12.40;99.90;;;;;;5056360;28;20123;-81
2022/06/07 01:52:36;;;;;;;1999.90;999.90;;;12.40;99.90;;;;;;5053632;28;20040;-82
2022/06/07 01:55:03;;;;;;;1999.90;999.90;;;12.40;99.90;;;;;;5055861;28;20044;-82
2022/06/07 01:57:29;;;;;;;1999.90;999.90;;;12.40;99.90;;;;;;5051625;28;20036;-83
2022/06/07 01:59:55;;;;;;;1999.90;999.90;;;12.50;99.90;;;;;;5052324;28;20040;-83
2022/06/07 02:02:24;;;;;;;1999.90;999.90;;;12.50;99.90;;;;;;5058743;28;20056;-83
2022/06/07 02:04:50;;;;;;;1999.90;999.90;;;12.50;99.90;;;;;;5057264;28;20048;-82
2022/06/07 02:07:16;;;;;;;1999.90;999.90;;;12.50;99.90;;;;;;5053478;28;20479;-82
2022/06/07 02:09:43;;;;;;;1999.90;999.90;;;12.50;99.90;;;;;;5042372;28;20068;-82
2022/06/07 02:12:09;;;;;;;1999.90;999.90;;;12.50;99.90;;;;;;5068293;28;20048;-82
2022/06/07 02:14:35;;;;;;;1999.90;999.90;;;12.50;99.90;;;;;;5037955;28;20036;-82
2022/06/07 02:17:00;;;;;;;1999.90;999.90;;;12.50;99.90;;;;;;5053980;28;20027;-81
2022/06/07 02:19:26;;;;;;;1999.90;999.90;;;12.50;99.90;;;;;;5059786;28;20485;-83
2022/06/07 02:21:52;;;;;;;1999.90;999.90;;;12.50;99.90;;;;;;5057095;28;20386;-82
2022/06/07 02:24:17;;;;;;;1999.90;999.90;;;12.60;99.90;;;;;;5060282;28;20071;-81
2022/06/07 02:26:56;;;;;;;1999.90;999.90;;;12.50;99.90;;;;;;5052913;28;20151;-82
2022/06/07 02:29:30;;;;;;;1999.90;999.90;;;12.50;99.90;;;;;;5056021;28;20039;-83
2022/06/07 02:31:59;;;;;;;1999.90;999.90;;;12.60;99.90;;;;;;5063071;28;20044;-82
2022/06/07 02:34:25;;;;;;;1999.90;999.90;;;12.60;99.90;;;;;;5056275;28;20116;-82
2022/06/07 02:36:56;;;;;;;1999.90;999.90;;;12.60;99.90;;;;;;5048113;28;20162;-82
2022/06/07 02:39:23;;;;;;;1999.90;999.90;;;12.60;99.90;;;;;;5070737;28;20045;-81
2022/06/07 02:41:49;;;;;;;1999.90;999.90;;;12.60;99.90;;;;;;5077997;28;20044;-82
2022/06/07 02:44:15;;;;;;;1999.90;999.90;;;12.60;99.90;;;;;;5067659;28;20545;-82
2022/06/07 02:46:40;;;;;;;1999.90;999.90;;;12.60;99.90;;;;;;5048604;28;20139;-79
2022/06/07 02:49:06;;;;;;;1999.90;999.90;;;12.60;99.90;;;;;;5058848;28;20132;-81
2022/06/07 02:51:32;;;;;;;1999.90;999.90;;;12.60;99.90;;;;;;5052712;28;20039;-81
2022/06/07 02:53:57;;;;;;;1999.90;999.90;;;12.60;99.90;;;;;;5057117;28;20203;-81
2022/06/07 02:56:23;;;;;;;1999.90;999.90;;;12.60;99.90;;;;;;5057654;28;20051;-82
2022/06/07 02:58:49;;;;;;;1999.90;999.90;;;12.60;99.90;;;;;;5055934;28;20074;-82
2022/06/07 03:01:15;;;;;;;1999.90;999.90;;;12.70;99.90;;;;;;5078543;28;20068;-82
2022/06/07 03:03:40;;;;;;;1999.90;999.90;;;12.70;99.90;;;;;;5048500;28;20041;-83
2022/06/07 03:06:06;;;;;;;1999.90;999.90;;;12.70;99.90;;;;;;5052807;28;20463;-82
2022/06/07 03:08:32;;;;;;;1999.90;999.90;;;12.70;99.90;;;;;;5075058;28;20040;-81
2022/06/07 03:10:58;;;;;;;1999.90;999.90;;;12.70;99.90;;;;;;5060966;28;20122;-82
2022/06/07 03:13:24;;;;;;;1999.90;999.90;;;12.70;99.90;;;;;;5045213;28;20111;-83
2022/06/07 03:15:49;;;;;;;1999.90;999.90;;;12.70;99.90;;;;;;5073110;28;20446;-83
2022/06/07 03:18:15;;;;;;;1999.90;999.90;;;12.70;99.90;;;;;;5047361;28;20119;-82
2022/06/07 03:20:42;;;;;;;1999.90;999.90;;;12.70;99.90;;;;;;5074038;28;20047;-82
2022/06/07 03:23:07;;;;;;;1999.90;999.90;;;12.70;99.90;;;;;;5058538;28;20446;-82
2022/06/07 03:25:34;;;;;;;1999.90;999.90;;;12.70;99.90;;;;;;5080904;28;20050;-81
2022/06/07 03:27:59;;;;;;;1999.90;999.90;;;12.70;99.90;;;;;;5062157;28;20405;-81
2022/06/07 03:30:25;;;;;;;1999.90;999.90;;;12.80;99.90;;;;;;5078999;28;20040;-82
2022/06/07 03:32:51;;;;;;;1999.90;999.90;;;12.70;99.90;;;;;;5079240;28;20063;-80
2022/06/07 03:35:17;;;;;;;1999.90;999.90;;;12.80;99.90;;;;;;5070732;28;20492;-82
2022/06/07 03:37:43;;;;;;;1999.90;999.90;;;12.70;99.90;;;;;;5079595;28;20137;-82
2022/06/07 03:40:12;;;;;;;1999.90;999.90;;;12.80;99.90;;;;;;5054757;28;20419;-81
2022/06/07 03:42:38;;;;;;;1999.90;999.90;;;12.80;99.90;;;;;;5078033;28;20039;-83
2022/06/07 03:45:04;;;;;;;1999.90;999.90;;;12.70;99.90;;;;;;5055703;28;20043;-82
2022/06/07 03:47:30;;;;;;;1999.90;999.90;;;12.70;99.90;;;;;;5078800;28;20089;-80
2022/06/07 03:49:56;;;;;;;1999.90;999.90;;;12.70;99.90;;;;;;5069779;28;20548;-81
2022/06/07 03:52:22;;;;;;;1999.90;999.90;;;12.70;99.90;;;;;;5056280;28;20040;-80
2022/06/07 03:54:49;;;;;;;1999.90;999.90;;;12.60;99.90;;;;;;5066795;28;20043;-80
2022/06/07 03:57:16;;;;;;;1999.90;999.90;;;12.60;99.90;;;;;;5047483;28;20037;-81
2022/06/07 03:59:41;;;;;;;1999.90;999.90;;;12.60;99.90;;;;;;5059338;28;20089;-81
2022/06/07 04:02:09;;;;;;;1999.90;999.90;;;12.50;99.90;;;;;;5079494;28;20048;-81
2022/06/07 04:04:35;;;;;;;1999.90;999.90;;;12.50;99.90;;;;;;5077243;28;20050;-80
2022/06/07 04:09:45;;;;;;;1999.90;999.90;;;12.50;99.90;;;;;;5071974;28;20062;-82
2022/06/07 04:12:13;;;;;;;1999.90;999.90;;;12.40;99.90;;;;;;5063323;28;20537;-80
2022/06/07 04:14:40;;;;;;;1999.90;999.90;;;12.40;99.90;;;;;;5058344;28;20032;-81
2022/06/07 04:17:07;;;;;;;1999.90;999.90;;;12.40;99.90;;;;;;5066163;28;20036;-80
2022/06/07 04:19:34;;;;;;;1999.90;999.90;;;12.30;99.90;;;;;;5076675;28;20039;-81
2022/06/07 04:22:01;;;;;;;1999.90;999.90;;;12.20;99.90;;;;;;5075336;28;20511;-81
2022/06/07 04:24:26;;;;;;;1999.90;999.90;;;12.10;99.90;;;;;;5056619;28;20172;-80
2022/06/07 04:26:52;;;;;;;1999.90;999.90;;;12.10;99.90;;;;;;5072020;28;20048;-81
2022/06/07 04:29:18;;;;;;;1999.90;999.90;;;12.00;99.90;;;;;;5060127;28;20071;-81
2022/06/07 04:31:43;;;;;;;1999.90;999.90;;;11.90;99.90;;;;;;5061947;28;20043;-80
2022/06/07 04:34:09;;;;;;;1999.90;999.90;;;11.80;99.90;;;;;;5076919;28;20036;-80
2022/06/07 04:36:36;;;;;;;1999.90;999.90;;;11.80;99.90;;;;;;5047396;28;20040;-81
2022/06/07 04:39:04;;;;;;;1999.90;999.90;;;11.80;99.90;;;;;;5047642;28;20076;-81
2022/06/07 04:41:29;;;;;;;1999.90;999.90;;;11.80;99.90;;;;;;5067667;28;20040;-81
2022/06/07 04:43:56;;;;;;;1999.90;999.90;;;11.80;99.90;;;;;;5082378;28;20051;-82
2022/06/07 04:46:23;;;;;;;1999.90;999.90;;;11.80;99.90;;;;;;5057648;28;20119;-80
2022/06/07 04:48:49;;;;;;;1999.90;999.90;;;11.80;99.90;;;;;;5050348;28;20051;-80
2022/06/07 04:51:36;;;;;;;1999.90;999.90;;;11.80;99.90;;;;;;5053797;28;20075;-80
2022/06/07 04:54:03;;;;;;;1999.90;999.90;;;11.90;99.90;;;;;;5046392;28;20070;-80
2022/06/07 04:56:34;;;;;;;1999.90;999.90;;;11.90;99.90;;;;;;5057539;28;20092;-81
2022/06/07 04:59:01;;;;;;;1999.90;999.90;;;12.00;99.90;;;;;;5054166;28;20035;-82
2022/06/07 05:01:30;;;;;;;1999.90;999.90;;;12.00;99.90;;;;;;5051825;28;20090;-81
2022/06/07 05:03:56;;;;;;;1999.90;999.90;;;12.00;99.90;;;;;;5054284;28;20044;-81
2022/06/07 05:06:24;;;;;;;1999.90;999.90;;;12.00;99.90;;;;;;5069105;28;20047;-81
2022/06/07 05:09:03;;;;;;;1999.90;999.90;;;12.10;99.90;;;;;;5048674;28;20447;-81
2022/06/07 05:11:29;;;;;;;1999.90;999.90;;;12.20;99.90;;;;;;5063101;28;20408;-81
2022/06/07 05:13:57;;;;;;;1999.90;999.90;;;12.10;99.90;;;;;;5072040;28;20405;-80
2022/06/07 05:16:23;;;;;;;1999.90;999.90;;;12.20;99.90;;;;;;5076295;28;20605;-81
2022/06/07 05:18:51;;;;;;;1999.90;999.90;;;12.20;99.90;;;;;;5070249;28;20081;-82
2022/06/07 05:21:17;;;;;;;1999.90;999.90;;;12.20;99.90;;;;;;5072918;28;20044;-81
2022/06/07 05:23:43;;;;;;;1999.90;999.90;;;12.30;99.90;;;;;;5074398;28;20052;-82
2022/06/07 05:26:18;;;;;;;1999.90;999.90;;;12.30;99.90;;;;;;5063346;28;20040;-81
2022/06/07 05:28:44;;;;;;;1999.90;999.90;;;12.30;99.90;;;;;;5045253;28;20114;-81
2022/06/07 05:31:10;;;;;;;1999.90;999.90;;;12.40;99.90;;;;;;5053757;28;20082;-82
2022/06/07 05:33:36;;;;;;;1999.90;999.90;;;12.40;99.90;;;;;;5051072;28;20504;-81
2022/06/07 05:36:03;;;;;;;1999.90;999.90;;;12.40;99.90;;;;;;5052944;28;20042;-81
2022/06/07 05:38:29;;;;;;;1999.90;999.90;;;12.50;99.90;;;;;;5063311;28;20396;-81
2022/06/07 05:40:55;;;;;;;1999.90;999.90;;;12.50;99.90;;;;;;5059703;28;20036;-82
2022/06/07 05:43:21;;;;;;;1999.90;999.90;;;12.60;99.90;;;;;;5059382;28;20493;-82
2022/06/07 05:45:51;;;;;;;1999.90;999.90;;;12.60;99.90;;;;;;5063421;28;20048;-82
2022/06/07 05:48:17;;;;;;;1999.90;999.90;;;12.60;99.90;;;;;;5069372;28;20109;-80
2022/06/07 05:50:44;;;;;;;1999.90;999.90;;;12.60;99.90;;;;;;5046097;28;20089;-81
2022/06/07 05:53:10;;;;;;;1999.90;999.90;;;12.50;99.90;;;;;;5069894;28;20048;-80
2022/06/07 05:55:36;;;;;;;1999.90;999.90;;;12.50;99.90;;;;;;5079262;28;20078;-82
2022/06/07 05:58:02;;;;;;;1999.90;999.90;;;12.50;99.90;;;;;;5082543;28;20493;-81
2022/06/07 06:00:28;;;;;;;1999.90;999.90;;;12.50;99.90;;;;;;5047022;28;20075;-80
2022/06/07 06:02:53;;;;;;;1999.90;999.90;;;12.40;99.90;;;;;;5064638;28;20508;-81
2022/06/07 06:05:19;;;;;;;1999.90;999.90;;;12.40;99.90;;;;;;5073609;28;20074;-81
2022/06/07 06:10:29;;;;;;;1999.90;999.90;;;12.30;99.90;;;;;;5085418;28;20469;-81
2022/06/07 06:12:54;;;;;;;1999.90;999.90;;;12.20;99.90;;;;;;5066173;28;20037;-81
2022/06/07 06:15:21;;;;;;;1999.90;999.90;;;12.10;99.90;;;;;;5055606;28;20075;-80
2022/06/07 06:17:47;;;;;;;1999.90;999.90;;;12.10;99.90;;;;;;5060489;28;20125;-81
2022/06/07 06:20:13;;;;;;;1999.90;999.90;;;12.00;99.90;;;;;;5068579;28;20079;-81
2022/06/07 06:22:39;;;;;;;1999.90;999.90;;;11.90;99.90;;;;;;5067728;28;20047;-81
2022/06/07 06:25:06;;;;;;;1999.90;999.90;;;11.90;99.90;;;;;;5062841;28;20558;-81
2022/06/07 06:27:32;;;;;;;1999.90;999.90;;;11.80;99.90;;;;;;5056851;28;20040;-79
2022/06/07 06:29:59;;;;;;;1999.90;999.90;;;11.80;99.90;;;;;;5053121;28;20121;-82
2022/06/07 06:32:24;;;;;;;1999.90;999.90;;;11.80;99.90;;;;;;5063585;28;20044;-82
2022/06/07 06:34:51;;;;;;;1999.90;999.90;;;11.80;99.90;;;;;;5051460;28;20136;-83
2022/06/07 06:37:18;;;;;;;1999.90;999.90;;;11.80;99.90;;;;;;5063461;28;20553;-81
2022/06/07 06:39:44;;;;;;;1999.90;999.90;;;11.80;99.90;;;;;;5073060;28;20036;-81
2022/06/07 06:42:10;;;;;;;1999.90;999.90;;;11.80;99.90;;;;;;5063477;28;20497;-81
2022/06/07 06:44:36;;;;;;;1999.90;999.90;;;11.90;99.90;;;;;;5074106;28;20048;-81
2022/06/07 06:47:02;;;;;;;1999.90;999.90;;;11.90;99.90;;;;;;5067598;28;20455;-80
2022/06/07 06:49:28;;;;;;;1999.90;999.90;;;11.90;99.90;;;;;;5063087;28;20044;-81
2022/06/07 06:51:56;;;;;;;1999.90;999.90;;;12.00;99.90;;;;;;5073699;28;20044;-82
2022/06/07 06:54:22;;;;;;;1999.90;999.90;;;12.00;99.90;;;;;;5074544;28;20044;-82
2022/06/07 06:56:48;;;;;;;1999.90;999.90;;;12.00;99.90;;;;;;5056540;28;20102;-81
2022/06/07 06:59:15;;;;;;;1999.90;999.90;;;12.10;99.90;;;;;;5070469;28;20523;-81
2022/06/07 07:01:42;;;;;;;1999.90;999.90;;;12.10;99.90;;;;;;5070449;28;20059;-81
2022/06/07 07:04:17;;;;;;;1999.90;999.90;;;12.10;99.90;;;;;;5056540;28;20040;-81
2022/06/07 07:06:45;;;;;;;1999.90;999.90;;;12.20;99.90;;;;;;5068096;28;20040;-81
2022/06/07 07:09:12;;;;;;;1999.90;999.90;;;12.30;99.90;;;;;;5063620;28;20051;-83
2022/06/07 07:11:42;;;;;;;1999.90;999.90;;;12.30;99.90;;;;;;5066018;28;20110;-81
2022/06/07 07:14:09;;;;;;;1999.90;999.90;;;12.40;99.90;;;;;;5054622;28;20043;-82
2022/06/07 07:16:49;;;;;;;1999.90;999.90;;;12.40;99.90;;;;;;5069024;28;20075;-81
2022/06/07 07:19:16;;;;;;;1999.90;999.90;;;12.50;99.90;;;;;;5062675;28;20040;-82
2022/06/07 07:21:45;;;;;;;1999.90;999.90;;;12.60;99.90;;;;;;5046813;28;20043;-80
2022/06/07 07:24:16;;;;;;;1999.90;999.90;;;12.70;99.90;;;;;;5071167;28;20054;-80
2022/06/07 07:26:43;;;;;;;1999.90;999.90;;;12.80;99.90;;;;;;5058707;28;20032;-82
2022/06/07 07:29:11;;;;;;;1999.90;999.90;;;12.90;99.90;;;;;;5071326;28;20043;-82
2022/06/07 07:31:37;;;;;;;1999.90;999.90;;;13.10;99.90;;;;;;5054687;28;20093;-80
2022/06/07 07:34:07;;;;;;;1999.90;999.90;;;13.10;99.90;;;;;;5072689;28;20048;-82
2022/06/07 07:36:34;;;;;;;1999.90;999.90;;;13.10;99.90;;;;;;5052864;28;20032;-81
2022/06/07 07:39:01;;;;;;;1999.90;999.90;;;13.20;99.90;;;;;;5069487;28;20447;-81
2022/06/07 07:41:32;;;;;;;1999.90;999.90;;;13.20;99.90;;;;;;5053347;28;20036;-81
2022/06/07 07:44:00;;;;;;;1999.90;999.90;;;13.30;99.90;;;;;;5051031;28;20040;-81
2022/06/07 07:46:32;;;;;;;1999.90;999.90;;;13.30;99.90;;;;;;5079137;28;20050;-80
2022/06/07 07:48:57;;;;;;;1999.90;999.90;;;13.40;99.90;;;;;;5059959;28;20062;-81
2022/06/07 07:51:29;;;;;;;1999.90;999.90;;;13.40;99.90;;;;;;5062154;28;20452;-79
2022/06/07 07:53:57;;;;;;;1999.90;999.90;;;13.50;99.90;;;;;;5077477;28;20126;-82
2022/06/07 07:56:23;;;;;;;1999.90;999.90;;;13.50;99.90;;;;;;5083726;28;20492;-81
2022/06/07 07:58:50;;;;;;;1999.90;999.90;;;13.60;99.90;;;;;;5065135;28;20036;-81
2022/06/07 08:01:18;;;;;;;1999.90;999.90;;;13.60;99.90;;;;;;5072003;28;20156;-80
2022/06/07 08:03:44;;;;;;;1999.90;999.90;;;13.70;99.90;;;;;;5055401;28;20478;-80
2022/06/07 08:06:12;;;;;;;1999.90;999.90;;;13.70;99.90;;;;;;5064659;28;20135;-81
2022/06/07 08:08:39;;;;;;;1999.90;999.90;;;13.70;99.90;;;;;;5067876;28;20089;-81
2022/06/07 08:11:05;;;;;;;1999.90;999.90;;;13.60;99.90;;;;;;5060812;28;20044;-80
2022/06/07 08:13:32;;;;;;;1999.90;999.90;;;13.60;99.90;;;;;;5079424;28;20425;-79
2022/06/07 08:15:58;;;;;;;1999.90;999.90;;;13.60;99.90;;;;;;5073248;28;20043;-81
2022/06/07 08:18:25;;;;;;;1999.90;999.90;;;13.50;99.90;;;;;;5070626;28;20040;-81
2022/06/07 08:20:56;;;;;;;1999.90;999.90;;;13.50;99.90;;;;;;5072080;28;20406;-81
2022/06/07 08:23:21;;;;;;;1999.90;999.90;;;13.50;99.90;;;;;;5059174;28;20056;-81
2022/06/07 08:25:47;;;;;;;1999.90;999.90;;;13.50;99.90;;;;;;5085591;28;20051;-80
2022/06/07 08:28:12;;;;;;;1999.90;999.90;;;13.60;99.90;;;;;;5061354;28;20036;-81
2022/06/07 08:30:44;;;;;;;1999.90;999.90;;;13.70;99.90;;;;;;5066512;28;20082;-80
2022/06/07 08:38:38;;;;;;;1999.90;999.90;;;13.90;99.90;;;;;;5070847;28;20162;-80
2022/06/07 08:41:05;;;;;;;1999.90;999.90;;;14.20;99.90;;;;;;5054486;28;20232;-80
2022/06/07 08:43:30;;;;;;;1999.90;999.90;;;14.40;99.90;;;;;;5069525;28;20553;-80
2022/06/07 08:45:57;;;;;;;1999.90;999.90;;;14.50;99.90;;;;;;5040509;28;20190;-81
2022/06/07 08:48:32;;;;;;;1999.90;999.90;;;14.50;99.90;;;;;;5071639;28;20048;-81
2022/06/07 08:51:19;;;;;;;1999.90;999.90;;;14.40;99.90;;;;;;5070680;28;20052;-80
2022/06/07 08:53:51;;;;;;;1999.90;999.90;;;14.40;99.90;;;;;;5056059;28;20039;-81
2022/06/07 08:56:22;;;;;;;1999.90;999.90;;;14.30;99.90;;;;;;5050334;28;20148;-81
2022/06/07 08:58:49;;;;;;;1999.90;999.90;;;14.50;99.90;;;;;;5069249;28;20485;-80
2022/06/07 09:01:28;;;;;;;1999.90;999.90;;;14.60;99.90;;;;;;5051337;28;20505;-79
2022/06/07 09:04:16;;;;;;;1999.90;999.90;;;14.70;99.90;;;;;;5062773;28;20134;-82
2022/06/07 09:06:48;;;;;;;1999.90;999.90;;;14.80;99.90;;;;;;5068146;28;20535;-81
2022/06/07 09:09:18;;;;;;;1999.90;999.90;;;14.90;99.90;;;;;;5045295;28;20048;-81
2022/06/07 09:12:14;;;;;;;1999.90;999.90;;;15.00;99.90;;;;;;5057496;28;20298;-81
2022/06/07 09:14:59;;;;;;;1999.90;999.90;;;15.10;99.90;;;;;;5036285;28;20044;-81
2022/06/07 09:17:33;;;;;;;1999.90;999.90;;;15.40;99.90;;;;;;5050478;28;20040;-80
2022/06/07 09:19:59;;;;;;;1999.90;999.90;;;15.70;99.90;;;;;;5051985;28;20053;-81
2022/06/07 09:22:36;;;;;;;1999.90;999.90;;;15.90;99.90;;;;;;5088184;28;20530;-80
2022/06/07 09:25:10;;;;;;;1999.90;999.90;;;16.00;99.90;;;;;;5046219;28;20064;-81
2022/06/07 09:27:37;;;;;;;1999.90;999.90;;;16.00;99.90;;;;;;5073114;28;20165;-83
2022/06/07 09:30:20;;;;;;;1999.90;999.90;;;15.90;99.90;;;;;;5071260;28;20036;-82
2022/06/07 09:32:50;;;;;;;1999.90;999.90;;;15.60;99.90;;;;;;5039774;28;20131;-80
2022/06/07 09:35:20;;;;;;;1999.90;999.90;;;15.30;99.90;;;;;;5070190;28;20052;-82
2022/06/07 09:37:52;;;;;;;1999.90;999.90;;;15.10;99.90;;;;;;5066064;28;20037;-82
2022/06/07 09:40:23;;;;;;;1999.90;999.90;;;14.80;99.90;;;;;;5043125;28;20036;-82
2022/06/07 09:42:53;;;;;;;1999.90;999.90;;;14.60;99.90;;;;;;5064460;28;20128;-82
2022/06/07 09:45:47;;;;;;;1999.90;999.90;;;14.50;99.90;;;;;;5056515;28;20405;-81
2022/06/07 09:48:25;;;;;;;1999.90;999.90;;;14.30;99.90;;;;;;5064258;28;20036;-82
2022/06/07 09:51:06;;;;;;;1999.90;999.90;;;14.20;99.90;;;;;;5062646;28;20050;-81
2022/06/07 09:53:38;;;;;;;1999.90;999.90;;;14.20;99.90;;;;;;5042114;28;20093;-81
2022/06/07 09:56:22;;;;;;;1999.90;999.90;;;14.20;99.90;;;;;;5050995;28;20090;-81
2022/06/07 09:59:04;;;;;;;1999.90;999.90;;;14.20;99.90;;;;;;5072056;28;20040;-81
2022/06/07 10:01:38;;;;;;;1999.90;999.90;;;14.10;99.90;;;;;;5052415;28;20086;-82
2022/06/07 10:04:25;;;;;;;1999.90;999.90;;;14.10;99.90;;;;;;5066849;28;20040;-81
2022/06/07 10:06:56;;;;;;;1999.90;999.90;;;14.30;99.90;;;;;;5043139;28;20631;-81
2022/06/07 10:09:30;;;;;;;1999.90;999.90;;;14.50;99.90;;;;;;5071223;28;20776;-82
2022/06/07 10:12:03;;;;;;;1999.90;999.90;;;14.70;99.90;;;;;;5077101;28;20036;-82
2022/06/07 10:14:54;;;;;;;1999.90;999.90;;;15.00;99.90;;;;;;5054189;28;20110;-81
2022/06/07 10:17:50;;;;;;;1999.90;999.90;;;15.10;99.90;;;;;;5063018;28;20046;-81
2022/06/07 10:20:48;;;;;;;1999.90;999.90;;;15.20;99.90;;;;;;5053881;28;20756;-82
2022/06/07 10:23:31;;;;;;;1999.90;999.90;;;15.40;99.90;;;;;;5016232;28;20552;-82
2022/06/07 10:26:01;;;;;;;;;;;15.60;99.90;;;;;;5045448;28;20067;-81
2022/06/07 10:28:42;;;;;;;1999.90;999.90;;;15.90;99.90;;;;;;5040360;28;19977;-82
2022/06/07 10:31:35;;;;;;;1999.90;999.90;;;16.20;99.90;;;;;;5068388;28;20431;-82
2022/06/07 10:34:06;;;;;;;1999.90;999.90;;;16.30;99.90;;;;;;5045027;28;20082;-82
2022/06/07 10:36:50;;;;;;;1999.90;999.90;;;16.20;99.90;;;;;;5066877;28;20476;-82
2022/06/07 10:39:42;;;;;;;1999.90;999.90;;;16.00;99.90;;;;;;5048662;28;20036;-82
2022/06/07 10:42:25;;;;;;;1999.90;999.90;;;15.70;99.90;;;;;;5079665;28;20417;-81
2022/06/07 10:45:03;;;;;;;1999.90;999.90;;;15.40;99.90;;;;;;5085614;28;20097;-82
2022/06/07 10:47:42;;;;;;;1999.90;999.90;;;15.20;99.90;;;;;;5049010;28;20044;-82
2022/06/07 10:50:23;;;;;;;1999.90;999.90;;;15.00;99.90;;;;;;5087609;28;20046;-82
2022/06/07 10:53:05;;;;;;;1999.90;999.90;;;15.00;99.90;;;;;;5062843;28;20047;-81
2022/06/07 10:55:45;;;;;;;1999.90;999.90;;;14.90;99.90;;;;;;5068415;28;20514;-82
2022/06/07 10:58:16;;;;;;;1999.90;999.90;;;14.90;99.90;;;;;;5058580;28;20046;-81
2022/06/07 11:01:01;;;;;;;1999.90;999.90;;;14.90;99.90;;;;;;5064048;28;20072;-81
2022/06/07 11:03:47;;;;;;;1999.90;999.90;;;14.90;99.90;;;;;;5061563;28;20048;-83
2022/06/07 11:09:43;;;;;;;1999.90;999.90;;;14.80;99.90;;;;;;5076267;28;20135;-82
2022/06/07 11:12:17;;;;;;;1999.90;999.90;;;14.90;99.90;;;;;;5044983;28;20516;-81
2022/06/07 11:15:04;;;;;;;1999.90;999.90;;;15.10;99.90;;;;;;5055576;28;20503;-81
2022/06/07 11:17:45;;;;;;;1999.90;999.90;;;15.40;99.90;;;;;;5054025;28;20048;-82
2022/06/07 11:20:21;;;;;;;1999.90;999.90;;;15.50;99.90;;;;;;5050655;28;20048;-82
2022/06/07 11:23:04;;;;;;;1999.90;999.90;;;15.60;99.90;;;;;;5063309;28;20040;-82
2022/06/07 11:25:33;;;;;;;1999.90;999.90;;;15.60;99.90;;;;;;5064024;28;20078;-82
2022/06/07 11:28:23;;;;;;;1999.90;999.90;;;15.80;99.90;;;;;;5059920;28;20036;-82
2022/06/07 11:30:54;;;;;;;1999.90;999.90;;;16.00;99.90;;;;;;5051354;28;20048;-82
2022/06/07 11:33:38;;;;;;;1999.90;999.90;;;16.10;99.90;;;;;;5058351;28;20102;-82
2022/06/07 11:36:07;;;;;;;1999.90;999.90;;;16.20;99.90;;;;;;5068155;28;20046;-83
2022/06/07 11:38:57;;;;;;;1999.90;999.90;;;16.20;99.90;;;;;;5073561;28;20539;-82
2022/06/07 11:41:37;;;;;;;1999.90;999.90;;;16.10;99.90;;;;;;5075206;28;20032;-82
2022/06/07 11:44:12;;;;;;;1999.90;999.90;;;16.10;99.90;;;;;;5063312;28;20043;-83
2022/06/07 11:46:46;;;;;;;1999.90;999.90;;;16.20;99.90;;;;;;5053586;28;20174;-82
2022/06/07 11:49:19;;;;;;;1999.90;999.90;;;16.30;99.90;;;;;;5046614;28;20109;-82
2022/06/07 11:52:11;;;;;;;1999.90;999.90;;;16.30;99.90;;;;;;5072060;28;20051;-82
2022/06/07 11:54:53;;;;;;;1999.90;999.90;;;16.20;99.90;;;;;;5066656;28;20067;-82
2022/06/07 11:57:31;;;;;;;1999.90;999.90;;;16.10;99.90;;;;;;5070123;28;20048;-82
2022/06/07 12:00:16;;;;;;;1999.90;999.90;;;16.20;99.90;;;;;;5087260;28;20044;-82
2022/06/07 12:03:06;;;;;;;1999.90;999.90;;;16.50;99.90;;;;;;5071478;28;20046;-83
2022/06/07 12:05:45;;;;;;;1999.90;999.90;;;16.70;99.90;;;;;;5077801;28;20043;-83
2022/06/07 12:08:26;;;;;;;1999.90;999.90;;;16.70;99.90;;;;;;5074282;28;20386;-83
2022/06/07 12:11:20;;;;;;;1999.90;999.90;;;16.90;99.90;;;;;;5066810;28;20043;-82
2022/06/07 12:14:19;;;;;;;1999.90;999.90;;;16.90;99.90;;;;;;5058500;28;20066;-83
2022/06/07 12:16:55;;;;;;;1999.90;999.90;;;16.90;99.90;;;;;;5060420;28;20436;-82
2022/06/07 12:19:23;;;;;;;1999.90;999.90;;;16.60;99.90;;;;;;5059894;28;20043;-83
2022/06/07 12:22:15;;;;;;;1999.90;999.90;;;16.40;99.90;;;;;;5064234;28;20079;-82
2022/06/07 12:25:16;;;;;;;1999.90;999.90;;;16.20;99.90;;;;;;5061321;28;20156;-83
2022/06/07 12:27:51;;;;;;;1999.90;999.90;;;16.00;99.90;;;;;;5047659;28;20032;-84
2022/06/07 12:30:23;;;;;;;1999.90;999.90;;;16.00;99.90;;;;;;5046526;28;20086;-82
2022/06/07 12:32:49;;;;;;;1999.90;999.90;;;16.00;99.90;;;;;;5062697;28;20055;-83
2022/06/07 12:35:18;;;;;;;1999.90;999.90;;;16.00;99.90;;;;;;5045491;28;20036;-80